Time;durP1;ratioP1;P1;durP2;ratioP2;P2;SDS_P1;SDS_P2;PMS_P1;PMS_P2;Temp;Humidity;BMP_temperature;BMP_pressure;BME280_temperature;BME280_humidity;BME280_pressure;Samples;Min_cycle;Max_cycle;Signal;HPM_P1;HPM_P2
2023/03/30 00:01:13;;;;;;;7.40;3.70;;;;;;;;;;5098495;28;20489;-74
2023/03/30 00:03:41;;;;;;;4.17;2.70;;;;;;;;;;5098649;28;20457;-73
2023/03/30 00:06:09;;;;;;;10.80;3.20;;;;;;;;;;5098002;28;20466;-73
2023/03/30 00:08:36;;;;;;;7.00;3.13;;;;;;;;;;5098761;28;20458;-73
2023/03/30 00:11:05;;;;;;;6.77;3.23;;;;;;;;;;5098071;28;20849;-74
2023/03/30 00:13:33;;;;;;;9.47;4.83;;;;;;;;;;5098388;28;20510;-73
2023/03/30 00:16:00;;;;;;;6.23;4.17;;;;;;;;;;5098102;28;20462;-73
2023/03/30 00:18:29;;;;;;;16.07;6.50;;;;;;;;;;5097664;28;20463;-73
2023/03/30 00:20:57;;;;;;;14.90;5.90;;;;;;;;;;5097482;28;20885;-73
2023/03/30 00:23:24;;;;;;;8.57;4.40;;;;;;;;;;5099321;28;20457;-74
2023/03/30 00:25:51;;;;;;;7.30;4.20;;;;;;;;;;5098581;28;20455;-73
2023/03/30 00:28:18;;;;;;;10.30;3.57;;;;;;;;;;5098357;28;20439;-73
2023/03/30 00:30:45;;;;;;;7.73;4.33;;;;;;;;;;5098233;28;20501;-73
2023/03/30 00:33:13;;;;;;;10.73;4.27;;;;;;;;;;5097753;28;20875;-73
2023/03/30 00:35:41;;;;;;;9.40;4.07;;;;;;;;;;5097961;28;20449;-73
2023/03/30 00:38:08;;;;;;;7.33;3.80;;;;;;;;;;5097684;28;20466;-73
2023/03/30 00:40:37;;;;;;;5.87;3.43;;;;;;;;;;5098283;28;20451;-73
2023/03/30 00:43:05;;;;;;;5.67;3.17;;;;;;;;;;5098108;28;20482;-73
2023/03/30 00:45:32;;;;;;;3.87;3.00;;;;;;;;;;5097457;28;20458;-73
2023/03/30 00:48:02;;;;;;;7.47;3.17;;;;;;;;;;5097947;28;20465;-73
2023/03/30 00:50:33;;;;;;;7.70;3.50;;;;;;;;;;5097846;28;20497;-73
2023/03/30 00:53:05;;;;;;;8.50;3.50;;;;;;;;;;5097968;28;20504;-73
2023/03/30 00:55:33;;;;;;;15.53;4.17;;;;;;;;;;5097161;28;20489;-73
2023/03/30 00:58:00;;;;;;;11.00;3.97;;;;;;;;;;5097304;28;20446;-73
2023/03/30 01:00:28;;;;;;;6.30;2.87;;;;;;;;;;5098059;28;20457;-74
2023/03/30 01:02:58;;;;;;;4.97;3.00;;;;;;;;;;5097335;28;20451;-74
2023/03/30 01:05:27;;;;;;;7.30;3.60;;;;;;;;;;5097210;28;20459;-74
2023/03/30 01:07:57;;;;;;;4.80;2.80;;;;;;;;;;5097800;28;20455;-73
2023/03/30 01:10:25;;;;;;;4.93;2.70;;;;;;;;;;5097484;28;20520;-73
2023/03/30 01:12:53;;;;;;;11.80;3.00;;;;;;;;;;5097355;28;20447;-74
2023/03/30 01:15:21;;;;;;;7.20;2.83;;;;;;;;;;5097132;28;20451;-73
2023/03/30 01:17:56;;;;;;;7.33;2.17;;;;;;;;;;5097403;28;20457;-73
2023/03/30 01:20:34;;;;;;;5.37;2.30;;;;;;;;;;5097355;28;20481;-74
2023/03/30 01:23:14;;;;;;;6.97;2.90;;;;;;;;;;5097024;28;20455;-74
2023/03/30 01:26:00;;;;;;;10.97;2.40;;;;;;;;;;5095162;28;20902;-75
2023/03/30 01:28:35;;;;;;;8.17;1.80;;;;;;;;;;5096683;28;20500;-74
2023/03/30 01:31:24;;;;;;;4.87;2.90;;;;;;;;;;5099181;28;20485;-74
2023/03/30 01:34:01;;;;;;;5.23;2.20;;;;;;;;;;5098673;28;20503;-75
2023/03/30 01:36:49;;;;;;;4.63;2.30;;;;;;;;;;5099352;28;20451;-74
2023/03/30 01:39:23;;;;;;;3.87;2.23;;;;;;;;;;5093947;28;20477;-74
2023/03/30 01:41:54;;;;;;;4.73;2.30;;;;;;;;;;5098750;28;20462;-75
2023/03/30 01:44:27;;;;;;;7.37;2.90;;;;;;;;;;5098736;28;20450;-75
2023/03/30 01:46:57;;;;;;;8.80;3.17;;;;;;;;;;5099577;28;20454;-74
2023/03/30 01:49:30;;;;;;;4.53;2.60;;;;;;;;;;5098898;28;20822;-75
2023/03/30 01:52:02;;;;;;;3.87;1.93;;;;;;;;;;5097696;28;20570;-74
2023/03/30 01:54:32;;;;;;;9.00;2.63;;;;;;;;;;5097777;28;20458;-75
2023/03/30 01:57:02;;;;;;;5.70;2.47;;;;;;;;;;5097716;28;20939;-74
2023/03/30 01:59:32;;;;;;;4.47;2.30;;;;;;;;;;5097802;28;20459;-74
2023/03/30 02:02:03;;;;;;;6.57;2.50;;;;;;;;;;5097383;28;20475;-74
2023/03/30 02:04:31;;;;;;;3.03;2.00;;;;;;;;;;5097810;28;20515;-75
2023/03/30 02:07:01;;;;;;;4.63;2.60;;;;;;;;;;5093490;28;20500;-75
2023/03/30 02:09:30;;;;;;;7.37;2.80;;;;;;;;;;5093933;28;20944;-74
2023/03/30 02:11:59;;;;;;;3.10;2.37;;;;;;;;;;5093670;28;20486;-74
2023/03/30 02:14:27;;;;;;;7.77;3.27;;;;;;;;;;5093504;28;20459;-75
2023/03/30 02:16:57;;;;;;;7.87;2.37;;;;;;;;;;5093689;28;20458;-74
2023/03/30 02:19:24;;;;;;;8.30;2.03;;;;;;;;;;5093685;28;20454;-75
2023/03/30 02:21:52;;;;;;;4.87;2.07;;;;;;;;;;5093510;28;20481;-75
2023/03/30 02:24:23;;;;;;;6.53;2.90;;;;;;;;;;5093458;28;20454;-75
2023/03/30 02:26:51;;;;;;;4.00;2.50;;;;;;;;;;5093705;28;20454;-74
2023/03/30 02:29:21;;;;;;;7.47;2.63;;;;;;;;;;5093510;28;20439;-74
2023/03/30 02:31:50;;;;;;;8.47;2.63;;;;;;;;;;5093340;28;20494;-75
2023/03/30 02:34:21;;;;;;;3.80;2.47;;;;;;;;;;5093122;28;20457;-75
2023/03/30 02:37:04;;;;;;;3.87;2.70;;;;;;;;;;5093518;28;20450;-75
2023/03/30 02:39:35;;;;;;;6.70;2.40;;;;;;;;;;5093220;28;20469;-75
2023/03/30 02:42:11;;;;;;;4.07;2.23;;;;;;;;;;5093235;28;20470;-75
2023/03/30 02:44:43;;;;;;;6.57;2.83;;;;;;;;;;5093221;28;20468;-75
2023/03/30 02:47:13;;;;;;;4.30;2.70;;;;;;;;;;5093340;28;20834;-75
2023/03/30 02:49:48;;;;;;;3.70;2.20;;;;;;;;;;5093233;28;20455;-75
2023/03/30 02:52:21;;;;;;;3.87;2.53;;;;;;;;;;5093036;28;20490;-75
2023/03/30 02:54:50;;;;;;;5.60;2.23;;;;;;;;;;5093107;28;20486;-75
2023/03/30 02:57:21;;;;;;;5.67;3.67;;;;;;;;;;5093091;28;20439;-76
2023/03/30 02:59:52;;;;;;;3.83;2.33;;;;;;;;;;5093323;28;20462;-75
2023/03/30 03:02:21;;;;;;;14.57;3.77;;;;;;;;;;5093138;28;20474;-75
2023/03/30 03:04:51;;;;;;;6.57;3.40;;;;;;;;;;5093140;28;20466;-75
2023/03/30 03:07:20;;;;;;;6.40;3.40;;;;;;;;;;5093039;28;20507;-75
2023/03/30 03:09:47;;;;;;;5.63;3.40;;;;;;;;;;5093007;28;20458;-75
2023/03/30 03:12:14;;;;;;;8.53;3.77;;;;;;;;;;5094179;28;20861;-75
2023/03/30 03:14:42;;;;;;;5.37;3.03;;;;;;;;;;5097004;28;20443;-75
2023/03/30 03:17:12;;;;;;;9.10;2.80;;;;;;;;;;5097157;28;20500;-75
2023/03/30 03:19:39;;;;;;;7.00;3.50;;;;;;;;;;5097098;28;20458;-75
2023/03/30 03:22:06;;;;;;;4.37;3.00;;;;;;;;;;5096736;28;20462;-75
2023/03/30 03:24:38;;;;;;;7.23;2.77;;;;;;;;;;5097116;28;20820;-75
2023/03/30 03:27:05;;;;;;;4.30;2.20;;;;;;;;;;5096916;28;20501;-75
2023/03/30 03:29:32;;;;;;;8.10;2.80;;;;;;;;;;5097123;28;20834;-75
2023/03/30 03:32:00;;;;;;;4.17;2.30;;;;;;;;;;5096847;28;20492;-76
2023/03/30 03:34:30;;;;;;;7.93;2.80;;;;;;;;;;5096789;28;20954;-76
2023/03/30 03:36:57;;;;;;;4.40;2.80;;;;;;;;;;5096882;28;20454;-75
2023/03/30 03:39:24;;;;;;;5.10;2.63;;;;;;;;;;5096547;28;20473;-75
2023/03/30 03:41:51;;;;;;;4.53;3.17;;;;;;;;;;5096772;28;20482;-75
2023/03/30 03:44:19;;;;;;;9.53;4.70;;;;;;;;;;5096509;28;20454;-75
2023/03/30 03:46:46;;;;;;;7.90;2.87;;;;;;;;;;5096593;28;20963;-76
2023/03/30 03:49:13;;;;;;;4.70;2.67;;;;;;;;;;5096580;28;20532;-75
2023/03/30 03:51:42;;;;;;;4.93;2.40;;;;;;;;;;5096552;28;20559;-75
2023/03/30 03:54:09;;;;;;;4.57;3.20;;;;;;;;;;5096472;28;20450;-75
2023/03/30 03:56:36;;;;;;;4.50;2.50;;;;;;;;;;5096728;28;20526;-75
2023/03/30 03:59:03;;;;;;;4.73;3.10;;;;;;;;;;5096630;28;20462;-75
2023/03/30 04:01:30;;;;;;;6.37;2.23;;;;;;;;;;5096180;28;20466;-75
2023/03/30 04:04:00;;;;;;;5.53;2.33;;;;;;;;;;5096151;28;20459;-74
2023/03/30 04:06:27;;;;;;;5.17;2.70;;;;;;;;;;5095953;28;20455;-74
2023/03/30 04:08:56;;;;;;;4.90;2.87;;;;;;;;;;5096299;28;20476;-74
2023/03/30 04:11:23;;;;;;;10.13;3.20;;;;;;;;;;5096118;28;20567;-74
2023/03/30 04:13:50;;;;;;;14.20;6.23;;;;;;;;;;5095681;28;20450;-74
2023/03/30 04:16:18;;;;;;;8.73;2.87;;;;;;;;;;5095914;28;20450;-75
2023/03/30 04:18:45;;;;;;;3.43;2.67;;;;;;;;;;5096119;28;20936;-74
2023/03/30 04:21:12;;;;;;;3.53;2.70;;;;;;;;;;5095828;28;20466;-74
2023/03/30 04:23:44;;;;;;;4.60;3.50;;;;;;;;;;5094770;27;20874;-74
2023/03/30 04:26:14;;;;;;;10.00;3.10;;;;;;;;;;5095851;28;20531;-74
2023/03/30 04:28:41;;;;;;;2.83;2.50;;;;;;;;;;5095576;28;20501;-75
2023/03/30 04:31:11;;;;;;;6.30;2.13;;;;;;;;;;5094177;28;20494;-74
2023/03/30 04:33:44;;;;;;;8.70;2.97;;;;;;;;;;5095629;28;20459;-74
2023/03/30 04:36:11;;;;;;;5.57;2.83;;;;;;;;;;5095837;28;20518;-73
2023/03/30 04:38:41;;;;;;;10.20;2.57;;;;;;;;;;5095490;28;20469;-73
2023/03/30 04:41:09;;;;;;;8.83;2.90;;;;;;;;;;5098295;28;20474;-76
2023/03/30 04:43:38;;;;;;;5.97;3.30;;;;;;;;;;5099112;28;20512;-74
2023/03/30 04:46:05;;;;;;;7.93;3.17;;;;;;;;;;5099217;28;20464;-74
2023/03/30 04:48:32;;;;;;;6.50;3.90;;;;;;;;;;5098654;28;20461;-74
2023/03/30 04:50:59;;;;;;;11.23;4.00;;;;;;;;;;5098750;28;20482;-73
2023/03/30 04:53:26;;;;;;;9.23;4.60;;;;;;;;;;5098716;28;20481;-75
2023/03/30 04:55:53;;;;;;;5.23;2.80;;;;;;;;;;5098528;28;20457;-73
2023/03/30 04:58:20;;;;;;;11.53;4.00;;;;;;;;;;5097979;28;20951;-73
2023/03/30 05:00:49;;;;;;;6.90;3.93;;;;;;;;;;5097857;28;20471;-73
2023/03/30 05:03:16;;;;;;;7.27;3.70;;;;;;;;;;5098502;28;20450;-73
2023/03/30 05:05:43;;;;;;;16.77;4.70;;;;;;;;;;5097475;28;20454;-73
2023/03/30 05:08:10;;;;;;;8.97;3.30;;;;;;;;;;5097979;28;20455;-74
2023/03/30 05:10:37;;;;;;;10.43;3.00;;;;;;;;;;5098073;28;20458;-73
2023/03/30 05:13:04;;;;;;;5.57;3.67;;;;;;;;;;5097890;28;20491;-74
2023/03/30 05:15:32;;;;;;;7.40;4.40;;;;;;;;;;5097563;28;20457;-74
2023/03/30 05:18:01;;;;;;;10.30;3.77;;;;;;;;;;5098094;28;20809;-73
2023/03/30 05:20:28;;;;;;;5.27;3.40;;;;;;;;;;5097985;28;20958;-74
2023/03/30 05:22:55;;;;;;;7.43;3.03;;;;;;;;;;5098507;28;20451;-74
2023/03/30 05:25:22;;;;;;;11.17;3.77;;;;;;;;;;5097703;28;20480;-74
2023/03/30 05:27:50;;;;;;;16.70;4.03;;;;;;;;;;5098591;28;20478;-74
2023/03/30 05:30:17;;;;;;;8.97;4.23;;;;;;;;;;5098432;28;20459;-74
2023/03/30 05:32:44;;;;;;;10.73;3.43;;;;;;;;;;5098533;28;20491;-74
2023/03/30 05:35:12;;;;;;;15.60;4.20;;;;;;;;;;5098153;28;20453;-76
2023/03/30 05:37:40;;;;;;;14.93;4.40;;;;;;;;;;5096474;28;20477;-74
2023/03/30 05:40:08;;;;;;;9.10;3.77;;;;;;;;;;5097837;28;20458;-74
2023/03/30 05:42:35;;;;;;;16.20;4.60;;;;;;;;;;5097497;28;20479;-74
2023/03/30 05:45:02;;;;;;;9.97;4.20;;;;;;;;;;5097117;28;20459;-76
2023/03/30 05:47:29;;;;;;;6.77;3.00;;;;;;;;;;5097786;28;20455;-75
2023/03/30 05:49:56;;;;;;;11.90;4.60;;;;;;;;;;5097384;28;20462;-75
2023/03/30 05:52:25;;;;;;;7.00;3.17;;;;;;;;;;5098275;28;20494;-74
2023/03/30 05:54:52;;;;;;;12.10;4.83;;;;;;;;;;5098172;28;20454;-75
2023/03/30 05:57:19;;;;;;;13.23;4.70;;;;;;;;;;5099138;28;20461;-75
2023/03/30 05:59:47;;;;;;;12.63;5.53;;;;;;;;;;5098820;28;20461;-75
2023/03/30 06:02:16;;;;;;;13.07;4.67;;;;;;;;;;5098805;28;21002;-75
2023/03/30 06:04:43;;;;;;;16.70;4.43;;;;;;;;;;5098294;28;20935;-75
2023/03/30 06:07:10;;;;;;;15.40;4.70;;;;;;;;;;5097858;28;20458;-74
2023/03/30 06:09:39;;;;;;;10.17;4.93;;;;;;;;;;5098280;28;20928;-74
2023/03/30 06:12:07;;;;;;;12.50;4.10;;;;;;;;;;5097275;28;20999;-76
2023/03/30 06:14:34;;;;;;;15.70;4.83;;;;;;;;;;5077432;28;20444;-75
2023/03/30 06:17:01;;;;;;;17.40;4.30;;;;;;;;;;5078276;28;20546;-77
2023/03/30 06:19:28;;;;;;;17.30;5.90;;;;;;;;;;5077013;28;20456;-75
2023/03/30 06:21:55;;;;;;;14.87;3.40;;;;;;;;;;5077944;28;20468;-75
2023/03/30 06:24:22;;;;;;;12.73;6.30;;;;;;;;;;5076494;28;20443;-75
2023/03/30 06:26:51;;;;;;;13.70;4.53;;;;;;;;;;5077550;28;20464;-75
2023/03/30 06:29:19;;;;;;;7.53;4.10;;;;;;;;;;5076667;28;20495;-75
2023/03/30 06:31:46;;;;;;;21.87;4.70;;;;;;;;;;5077059;28;20472;-75
2023/03/30 06:34:13;;;;;;;16.77;4.40;;;;;;;;;;5075649;28;20520;-74
2023/03/30 06:36:41;;;;;;;10.70;5.03;;;;;;;;;;5075730;28;20448;-75
2023/03/30 06:39:08;;;;;;;9.77;4.60;;;;;;;;;;5075454;28;20483;-76
2023/03/30 06:41:35;;;;;;;10.00;3.37;;;;;;;;;;5075571;28;20468;-75
2023/03/30 06:44:03;;;;;;;20.90;4.67;;;;;;;;;;5075225;28;20467;-76
2023/03/30 06:46:32;;;;;;;16.90;4.80;;;;;;;;;;5076355;28;20451;-75
2023/03/30 06:48:59;;;;;;;12.60;5.23;;;;;;;;;;5077923;28;20964;-75
2023/03/30 06:51:26;;;;;;;10.50;4.30;;;;;;;;;;5078622;28;20512;-75
2023/03/30 06:53:53;;;;;;;14.03;4.30;;;;;;;;;;5087331;28;20490;-75
2023/03/30 06:56:21;;;;;;;13.67;4.33;;;;;;;;;;5097407;28;20457;-74
2023/03/30 06:58:48;;;;;;;10.70;4.37;;;;;;;;;;5097674;28;20493;-75
2023/03/30 07:01:17;;;;;;;12.53;5.60;;;;;;;;;;5098315;28;20480;-75
2023/03/30 07:03:44;;;;;;;9.10;5.20;;;;;;;;;;5098568;28;20542;-76
2023/03/30 07:06:12;;;;;;;10.53;5.00;;;;;;;;;;5098442;28;20451;-76
2023/03/30 07:08:40;;;;;;;11.20;3.80;;;;;;;;;;5098099;28;20442;-75
2023/03/30 07:11:07;;;;;;;5.90;3.37;;;;;;;;;;5094375;28;20975;-75
2023/03/30 07:13:34;;;;;;;13.53;3.60;;;;;;;;;;5092623;28;20501;-75
2023/03/30 07:16:02;;;;;;;9.27;3.37;;;;;;;;;;5092911;28;20465;-76
2023/03/30 07:18:30;;;;;;;15.03;3.67;;;;;;;;;;5092910;28;20516;-75
2023/03/30 07:20:58;;;;;;;10.47;3.70;;;;;;;;;;5093023;28;20817;-76
2023/03/30 07:23:25;;;;;;;11.47;3.93;;;;;;;;;;5092818;28;20455;-76
2023/03/30 07:25:53;;;;;;;6.13;2.80;;;;;;;;;;5092876;28;20450;-75
2023/03/30 07:28:20;;;;;;;12.00;3.67;;;;;;;;;;5092922;28;20457;-76
2023/03/30 07:30:47;;;;;;;13.30;3.83;;;;;;;;;;5090591;28;20482;-75
2023/03/30 07:33:14;;;;;;;10.30;4.07;;;;;;;;;;5091322;28;20482;-75
2023/03/30 07:35:44;;;;;;;10.83;4.10;;;;;;;;;;5091321;28;20450;-76
2023/03/30 07:38:12;;;;;;;8.67;5.03;;;;;;;;;;5090920;28;20465;-76
2023/03/30 07:40:39;;;;;;;9.20;4.27;;;;;;;;;;5091361;28;20459;-75
2023/03/30 07:43:06;;;;;;;11.43;5.30;;;;;;;;;;5091377;28;20450;-75
2023/03/30 07:45:33;;;;;;;6.53;4.10;;;;;;;;;;5091067;28;20884;-76
2023/03/30 07:48:00;;;;;;;9.93;4.90;;;;;;;;;;5091395;28;20932;-76
2023/03/30 07:50:28;;;;;;;6.80;4.70;;;;;;;;;;5091232;28;21015;-75
2023/03/30 07:52:57;;;;;;;17.23;4.60;;;;;;;;;;5091470;28;20577;-75
2023/03/30 07:55:24;;;;;;;9.63;5.63;;;;;;;;;;5090890;28;20516;-75
2023/03/30 07:57:51;;;;;;;11.40;4.40;;;;;;;;;;5091295;28;20451;-75
2023/03/30 08:00:20;;;;;;;12.07;3.93;;;;;;;;;;5092926;28;20478;-75
2023/03/30 08:02:47;;;;;;;7.53;2.73;;;;;;;;;;5095146;28;20466;-75
2023/03/30 08:05:16;;;;;;;11.97;3.73;;;;;;;;;;5094616;28;20469;-75
2023/03/30 08:07:43;;;;;;;7.30;3.17;;;;;;;;;;5094344;28;20820;-75
2023/03/30 08:10:13;;;;;;;10.70;3.30;;;;;;;;;;5094839;28;20446;-75
2023/03/30 08:12:41;;;;;;;6.40;3.30;;;;;;;;;;5094798;28;20490;-75
2023/03/30 08:15:08;;;;;;;12.80;5.40;;;;;;;;;;5094630;28;20451;-75
2023/03/30 08:17:36;;;;;;;9.83;4.07;;;;;;;;;;5094892;28;20450;-75
2023/03/30 08:20:09;;;;;;;9.80;3.43;;;;;;;;;;5095251;28;20480;-75
2023/03/30 08:22:36;;;;;;;8.00;3.70;;;;;;;;;;5094683;28;20913;-76
2023/03/30 08:25:03;;;;;;;9.63;4.10;;;;;;;;;;5094723;28;20455;-76
2023/03/30 08:27:32;;;;;;;10.60;3.50;;;;;;;;;;5094757;28;21213;-76
2023/03/30 08:29:59;;;;;;;7.03;3.80;;;;;;;;;;5094463;28;20465;-75
2023/03/30 08:32:26;;;;;;;5.87;3.17;;;;;;;;;;5094295;28;20505;-75
2023/03/30 08:34:54;;;;;;;12.43;3.17;;;;;;;;;;5094477;28;20451;-76
2023/03/30 08:37:21;;;;;;;5.67;2.43;;;;;;;;;;5094417;28;20459;-76
2023/03/30 08:39:48;;;;;;;9.40;3.60;;;;;;;;;;5094342;28;20483;-77
2023/03/30 08:42:30;;;;;;;7.97;3.30;;;;;;;;;;5094146;28;20467;-78
2023/03/30 08:45:03;;;;;;;9.50;3.33;;;;;;;;;;5094970;28;20458;-78
2023/03/30 08:47:33;;;;;;;7.33;3.37;;;;;;;;;;5095327;28;20557;-77
2023/03/30 08:50:02;;;;;;;3.20;2.37;;;;;;;;;;5095405;28;20533;-77
2023/03/30 08:52:31;;;;;;;6.17;3.17;;;;;;;;;;5095141;28;20475;-78
2023/03/30 08:54:58;;;;;;;6.83;2.67;;;;;;;;;;5095183;28;20489;-78
2023/03/30 08:57:32;;;;;;;9.03;3.17;;;;;;;;;;5095060;28;20455;-78
2023/03/30 09:00:10;;;;;;;4.40;2.37;;;;;;;;;;5095712;28;20454;-78
2023/03/30 09:02:41;;;;;;;3.73;1.90;;;;;;;;;;5095581;28;20900;-78
2023/03/30 09:05:11;;;;;;;10.67;2.80;;;;;;;;;;5095377;28;20462;-78
2023/03/30 09:07:41;;;;;;;3.93;2.10;;;;;;;;;;5094890;28;20451;-78
2023/03/30 09:10:11;;;;;;;5.00;2.60;;;;;;;;;;5095025;28;20458;-78
2023/03/30 09:12:40;;;;;;;10.20;3.50;;;;;;;;;;5095127;28;20498;-76
2023/03/30 09:15:13;;;;;;;4.60;2.77;;;;;;;;;;5095021;28;20541;-76
2023/03/30 09:17:42;;;;;;;6.10;2.70;;;;;;;;;;5095112;28;20466;-76
2023/03/30 09:20:14;;;;;;;5.53;1.73;;;;;;;;;;5095198;28;20477;-76
2023/03/30 09:22:42;;;;;;;9.27;3.47;;;;;;;;;;5095396;28;20474;-76
2023/03/30 09:25:14;;;;;;;8.03;2.23;;;;;;;;;;5095337;28;20450;-79
2023/03/30 09:27:45;;;;;;;5.73;2.60;;;;;;;;;;5099414;28;20443;-79
2023/03/30 09:30:21;;;;;;;3.77;2.20;;;;;;;;;;5097115;28;20462;-76
2023/03/30 09:32:52;;;;;;;4.83;1.97;;;;;;;;;;5094795;28;20574;-76
2023/03/30 09:35:20;;;;;;;8.43;3.07;;;;;;;;;;5094307;28;20533;-77
2023/03/30 09:37:47;;;;;;;14.80;2.70;;;;;;;;;;5094551;28;20454;-76
2023/03/30 09:40:20;;;;;;;7.73;4.10;;;;;;;;;;5094467;28;20469;-76
2023/03/30 09:42:52;;;;;;;10.40;2.53;;;;;;;;;;5094414;28;20474;-75
2023/03/30 09:45:23;;;;;;;4.27;2.07;;;;;;;;;;5094941;28;20457;-76
2023/03/30 09:47:50;;;;;;;8.10;2.33;;;;;;;;;;5094310;28;20528;-74
2023/03/30 09:50:18;;;;;;;5.87;2.53;;;;;;;;;;5094148;28;20459;-75
2023/03/30 09:52:55;;;;;;;11.53;3.13;;;;;;;;;;5093954;28;20482;-75
2023/03/30 09:55:27;;;;;;;5.43;2.37;;;;;;;;;;5094435;28;20552;-75
2023/03/30 09:57:54;;;;;;;6.00;2.30;;;;;;;;;;5094363;28;20468;-75
2023/03/30 10:00:28;;;;;;;4.13;2.10;;;;;;;;;;5094103;28;20551;-75
2023/03/30 10:02:56;;;;;;;6.33;2.30;;;;;;;;;;5093974;28;20453;-75
2023/03/30 10:05:23;;;;;;;9.47;2.50;;;;;;;;;;5094069;28;20879;-76
2023/03/30 10:07:54;;;;;;;4.60;2.50;;;;;;;;;;5094048;28;20812;-75
2023/03/30 10:10:29;;;;;;;11.83;3.90;;;;;;;;;;5093933;28;20457;-75
2023/03/30 10:12:57;;;;;;;6.43;2.70;;;;;;;;;;5093981;28;20531;-75
2023/03/30 10:15:29;;;;;;;5.43;2.70;;;;;;;;;;5093781;28;20466;-75
2023/03/30 10:17:56;;;;;;;10.70;3.10;;;;;;;;;;5093786;28;20457;-75
2023/03/30 10:20:26;;;;;;;7.77;2.57;;;;;;;;;;5093759;28;20924;-76
2023/03/30 10:22:54;;;;;;;6.70;2.50;;;;;;;;;;5092982;28;20442;-75
2023/03/30 10:25:23;;;;;;;10.80;2.67;;;;;;;;;;5094049;28;20455;-75
2023/03/30 10:27:52;;;;;;;7.70;2.50;;;;;;;;;;5093800;28;20504;-75
2023/03/30 10:30:22;;;;;;;11.13;4.50;;;;;;;;;;5093479;28;20451;-77
2023/03/30 10:32:51;;;;;;;8.37;2.83;;;;;;;;;;5092186;28;20470;-75
2023/03/30 10:35:19;;;;;;;11.17;3.33;;;;;;;;;;5092552;28;20806;-75
2023/03/30 10:37:48;;;;;;;7.63;4.13;;;;;;;;;;5092214;28;20461;-75
2023/03/30 10:40:18;;;;;;;8.97;3.57;;;;;;;;;;5092586;28;20454;-75
2023/03/30 10:42:47;;;;;;;13.33;5.00;;;;;;;;;;5094051;28;20562;-75
2023/03/30 10:45:16;;;;;;;7.30;2.40;;;;;;;;;;5092921;28;20891;-75
2023/03/30 10:47:55;;;;;;;7.13;2.83;;;;;;;;;;5092531;28;20458;-75
2023/03/30 10:50:27;;;;;;;14.87;4.20;;;;;;;;;;5092379;28;20820;-75
2023/03/30 10:52:59;;;;;;;14.70;5.90;;;;;;;;;;5091969;28;20450;-75
2023/03/30 10:55:30;;;;;;;10.20;3.50;;;;;;;;;;5091987;28;20455;-75
2023/03/30 10:57:59;;;;;;;8.43;3.40;;;;;;;;;;5092126;28;20447;-75
2023/03/30 11:00:33;;;;;;;3.17;2.17;;;;;;;;;;5092149;28;20451;-75
2023/03/30 11:03:06;;;;;;;6.97;2.40;;;;;;;;;;5092094;28;20471;-75
2023/03/30 11:05:35;;;;;;;4.73;2.20;;;;;;;;;;5091862;28;20944;-75
2023/03/30 11:08:04;;;;;;;8.33;3.30;;;;;;;;;;5092114;28;20945;-74
2023/03/30 11:10:33;;;;;;;4.27;2.70;;;;;;;;;;5092221;28;20461;-77
2023/03/30 11:13:02;;;;;;;10.70;2.60;;;;;;;;;;5094253;28;20458;-75
2023/03/30 11:15:38;;;;;;;7.20;3.10;;;;;;;;;;5094746;28;20458;-74
2023/03/30 11:18:12;;;;;;;9.90;2.67;;;;;;;;;;5095717;28;20435;-75
2023/03/30 11:20:43;;;;;;;4.60;2.27;;;;;;;;;;5093993;28;20458;-75
2023/03/30 11:23:22;;;;;;;9.30;2.37;;;;;;;;;;5093028;28;20446;-75
2023/03/30 11:25:54;;;;;;;7.00;2.70;;;;;;;;;;5093983;28;20557;-74
2023/03/30 11:28:28;;;;;;;10.57;4.63;;;;;;;;;;5092903;28;20458;-74
2023/03/30 11:30:59;;;;;;;10.17;2.80;;;;;;;;;;5091919;28;20486;-74
2023/03/30 11:33:30;;;;;;;5.70;3.90;;;;;;;;;;5093330;28;20502;-75
2023/03/30 11:35:59;;;;;;;12.10;3.87;;;;;;;;;;5095783;28;20457;-75
2023/03/30 11:38:29;;;;;;;7.60;3.17;;;;;;;;;;5095227;28;20551;-75
2023/03/30 11:40:58;;;;;;;10.97;5.47;;;;;;;;;;5095684;28;20485;-75
2023/03/30 11:43:29;;;;;;;7.20;3.47;;;;;;;;;;5095480;28;20950;-75
2023/03/30 11:46:02;;;;;;;7.07;3.53;;;;;;;;;;5095438;28;20451;-75
2023/03/30 11:48:40;;;;;;;9.50;3.03;;;;;;;;;;5095202;28;20458;-74
2023/03/30 11:51:16;;;;;;;5.93;2.53;;;;;;;;;;5095480;28;20524;-75
2023/03/30 11:53:51;;;;;;;11.57;4.67;;;;;;;;;;5095224;28;20473;-77
2023/03/30 11:56:25;;;;;;;17.47;3.97;;;;;;;;;;5095044;28;20454;-75
2023/03/30 11:58:58;;;;;;;9.73;3.50;;;;;;;;;;5095148;28;20498;-75
2023/03/30 12:01:31;;;;;;;7.80;3.17;;;;;;;;;;5094804;28;20905;-75
2023/03/30 12:04:05;;;;;;;10.00;3.50;;;;;;;;;;5094782;28;20450;-75
2023/03/30 12:06:33;;;;;;;14.47;3.87;;;;;;;;;;5095006;28;20442;-75
2023/03/30 12:09:06;;;;;;;10.03;3.40;;;;;;;;;;5095595;28;20454;-74
2023/03/30 12:11:36;;;;;;;9.10;3.30;;;;;;;;;;5095826;28;20898;-74
2023/03/30 12:14:03;;;;;;;8.17;3.30;;;;;;;;;;5095413;28;20494;-74
2023/03/30 12:16:31;;;;;;;10.20;3.20;;;;;;;;;;5095901;28;20451;-74
2023/03/30 12:19:06;;;;;;;6.23;3.27;;;;;;;;;;5095795;28;20469;-74
2023/03/30 12:21:34;;;;;;;7.20;3.37;;;;;;;;;;5095686;28;20470;-74
2023/03/30 12:24:05;;;;;;;12.17;3.00;;;;;;;;;;5095627;28;20454;-74
2023/03/30 12:26:36;;;;;;;9.10;2.60;;;;;;;;;;5095757;28;20459;-74
2023/03/30 12:29:08;;;;;;;9.13;3.27;;;;;;;;;;5095835;28;20974;-74
2023/03/30 12:31:49;;;;;;;7.20;2.60;;;;;;;;;;5095913;28;20478;-74
2023/03/30 12:34:18;;;;;;;10.30;2.77;;;;;;;;;;5095722;28;20485;-75
2023/03/30 12:36:48;;;;;;;10.50;3.57;;;;;;;;;;5095955;28;20458;-75
2023/03/30 12:39:20;;;;;;;14.07;2.63;;;;;;;;;;5095543;28;20539;-75
2023/03/30 12:41:49;;;;;;;12.30;3.30;;;;;;;;;;5095325;28;20524;-75
2023/03/30 12:44:34;;;;;;;3.77;2.23;;;;;;;;;;5094928;28;20450;-73
2023/03/30 12:47:08;;;;;;;6.73;2.50;;;;;;;;;;5095955;28;20854;-74
2023/03/30 12:49:43;;;;;;;4.70;2.80;;;;;;;;;;5096376;28;20517;-76
2023/03/30 12:52:12;;;;;;;9.40;2.60;;;;;;;;;;5096013;28;20470;-77
2023/03/30 12:55:02;;;;;;;8.10;2.90;;;;;;;;;;5095581;28;20488;-76
2023/03/30 12:57:37;;;;;;;5.30;2.43;;;;;;;;;;5094143;28;20460;-76
2023/03/30 13:00:28;;;;;;;5.77;3.17;;;;;;;;;;5094268;28;20458;-76
2023/03/30 13:03:17;;;;;;;5.80;3.00;;;;;;;;;;5094378;28;20474;-76
2023/03/30 13:05:49;;;;;;;54.33;21.63;;;;;;;;;;5089354;28;20458;-76
2023/03/30 13:08:21;;;;;;;6.60;3.30;;;;;;;;;;5094558;28;20502;-77
2023/03/30 13:10:48;;;;;;;5.70;3.00;;;;;;;;;;5094561;28;20971;-75
2023/03/30 13:13:23;;;;;;;11.43;3.30;;;;;;;;;;5093986;28;20431;-75
2023/03/30 13:15:50;;;;;;;7.07;2.80;;;;;;;;;;5093927;28;20844;-75
2023/03/30 13:18:25;;;;;;;5.90;3.63;;;;;;;;;;5093610;28;20947;-75
2023/03/30 13:21:06;;;;;;;31.43;15.40;;;;;;;;;;5094131;28;20481;-75
2023/03/30 13:23:36;;;;;;;12.70;4.97;;;;;;;;;;5094097;28;20438;-75
2023/03/30 13:26:06;;;;;;;6.17;3.50;;;;;;;;;;5093409;28;20451;-75
2023/03/30 13:28:53;;;;;;;5.70;3.13;;;;;;;;;;5093526;28;20462;-74
2023/03/30 13:31:27;;;;;;;8.50;3.20;;;;;;;;;;5093493;28;20482;-75
2023/03/30 13:34:01;;;;;;;7.30;4.73;;;;;;;;;;5093378;28;20454;-75
2023/03/30 13:36:31;;;;;;;6.50;4.03;;;;;;;;;;5093519;28;20469;-75
2023/03/30 13:39:01;;;;;;;4.87;3.23;;;;;;;;;;5093620;28;20466;-75
2023/03/30 13:41:37;;;;;;;6.63;4.03;;;;;;;;;;5093236;28;20485;-75
2023/03/30 13:44:17;;;;;;;7.67;4.00;;;;;;;;;;5093915;28;20454;-75
2023/03/30 13:46:48;;;;;;;4.80;3.73;;;;;;;;;;5094569;28;20448;-75
2023/03/30 13:49:21;;;;;;;10.23;3.77;;;;;;;;;;5094076;28;20494;-75
2023/03/30 13:51:53;;;;;;;9.43;4.67;;;;;;;;;;5093364;28;20893;-75
2023/03/30 13:54:22;;;;;;;8.60;4.37;;;;;;;;;;5094212;28;20481;-75
2023/03/30 13:56:51;;;;;;;10.40;4.27;;;;;;;;;;5092969;28;20450;-75
2023/03/30 13:59:20;;;;;;;12.90;4.63;;;;;;;;;;5093135;28;20458;-75
2023/03/30 14:01:50;;;;;;;7.73;5.07;;;;;;;;;;5094249;28;20478;-75
2023/03/30 14:04:17;;;;;;;9.67;6.50;;;;;;;;;;5094040;28;20447;-75
2023/03/30 14:06:45;;;;;;;14.63;5.50;;;;;;;;;;5094210;28;20997;-75
2023/03/30 14:09:15;;;;;;;8.40;5.40;;;;;;;;;;5093789;28;20459;-75
2023/03/30 14:11:44;;;;;;;8.83;5.70;;;;;;;;;;5094145;28;20475;-75
2023/03/30 14:14:16;;;;;;;7.10;5.30;;;;;;;;;;5093711;28;20443;-75
2023/03/30 14:16:43;;;;;;;10.10;5.67;;;;;;;;;;5094003;28;20450;-75
2023/03/30 14:19:12;;;;;;;14.30;6.17;;;;;;;;;;5093922;28;20506;-75
2023/03/30 14:21:43;;;;;;;11.70;6.30;;;;;;;;;;5093838;28;20471;-75
2023/03/30 14:24:11;;;;;;;7.33;5.07;;;;;;;;;;5093498;28;21001;-75
2023/03/30 14:26:40;;;;;;;6.67;5.60;;;;;;;;;;5093930;28;20461;-74
2023/03/30 14:29:10;;;;;;;7.33;5.03;;;;;;;;;;5093579;28;20431;-75
2023/03/30 14:31:38;;;;;;;14.00;6.23;;;;;;;;;;5093561;28;20470;-75
2023/03/30 14:34:20;;;;;;;8.90;4.47;;;;;;;;;;5093445;28;20822;-74
2023/03/30 14:36:47;;;;;;;8.53;6.37;;;;;;;;;;5093544;28;20450;-74
2023/03/30 14:39:15;;;;;;;7.93;5.27;;;;;;;;;;5093358;28;20462;-74
2023/03/30 14:41:44;;;;;;;24.23;14.13;;;;;;;;;;5093601;28;20475;-74
2023/03/30 14:44:12;;;;;;;19.10;11.80;;;;;;;;;;5093438;28;20983;-74
2023/03/30 14:46:41;;;;;;;24.77;15.40;;;;;;;;;;5093504;28;20462;-74
2023/03/30 14:49:08;;;;;;;14.70;11.30;;;;;;;;;;5093192;28;20520;-74
2023/03/30 14:51:39;;;;;;;16.10;9.20;;;;;;;;;;5092893;28;20475;-74
2023/03/30 14:54:06;;;;;;;15.70;8.60;;;;;;;;;;5093019;28;20450;-74